Time;durP1;ratioP1;P1;durP2;ratioP2;P2;SDS_P1;SDS_P2;PMS_P1;PMS_P2;Temp;Humidity;BMP_temperature;BMP_pressure;BME280_temperature;BME280_humidity;BME280_pressure;Samples;Min_cycle;Max_cycle;Signal;HPM_P1;HPM_P2
2024/01/28 00:00:46;;;;;;;16.83;10.20;;;1.20;83.50;;;;;;5047786;28;20127;-62
2024/01/28 00:03:12;;;;;;;16.45;9.60;;;1.20;83.60;;;;;;5048412;28;20183;-61
2024/01/28 00:05:38;;;;;;;16.02;9.18;;;1.20;83.70;;;;;;5050125;28;20122;-61
2024/01/28 00:08:05;;;;;;;18.02;9.38;;;1.20;83.70;;;;;;5049956;28;20120;-61
2024/01/28 00:10:31;;;;;;;18.52;10.15;;;1.20;83.70;;;;;;5046389;28;20033;-59
2024/01/28 00:12:57;;;;;;;16.90;9.75;;;1.10;83.50;;;;;;5046381;28;20033;-62
2024/01/28 00:15:22;;;;;;;19.60;10.02;;;1.10;83.40;;;;;;5048193;28;20044;-61
2024/01/28 00:17:50;;;;;;;18.52;10.20;;;1.10;83.50;;;;;;5046647;28;20025;-60
2024/01/28 00:20:15;;;;;;;18.92;11.00;;;1.10;83.60;;;;;;5051181;28;20202;-61
2024/01/28 00:22:41;;;;;;;21.10;10.95;;;1.10;83.90;;;;;;5047357;28;20137;-61
2024/01/28 00:25:07;;;;;;;21.33;10.77;;;1.10;84.00;;;;;;5045176;28;20540;-61
2024/01/28 00:27:32;;;;;;;20.65;11.20;;;1.10;84.00;;;;;;5049986;28;20397;-61
2024/01/28 00:29:58;;;;;;;19.92;11.30;;;1.10;83.90;;;;;;5048590;28;20079;-59
2024/01/28 00:32:23;;;;;;;22.17;10.88;;;1.10;83.70;;;;;;5045868;28;20416;-61
2024/01/28 00:34:49;;;;;;;21.52;11.05;;;1.10;83.50;;;;;;5050548;28;20025;-61
2024/01/28 00:37:15;;;;;;;20.58;10.60;;;1.00;83.50;;;;;;5043985;28;20476;-62
2024/01/28 00:39:40;;;;;;;20.33;11.18;;;1.00;83.50;;;;;;5049752;28;20036;-62
2024/01/28 00:42:06;;;;;;;20.25;10.13;;;1.00;83.50;;;;;;5046738;28;20033;-62
2024/01/28 00:44:32;;;;;;;16.55;9.57;;;1.00;83.70;;;;;;5046756;28;20212;-63
2024/01/28 00:46:57;;;;;;;19.52;9.65;;;0.90;83.70;;;;;;5050901;28;20052;-62
2024/01/28 00:49:29;;;;;;;14.18;8.55;;;0.90;84.70;;;;;;5049188;28;20493;-61
2024/01/28 00:51:57;;;;;;;21.50;10.60;;;0.90;84.00;;;;;;5048481;28;20030;-61
2024/01/28 00:54:24;;;;;;;18.92;10.32;;;0.90;84.00;;;;;;5045725;28;20482;-62
2024/01/28 00:56:52;;;;;;;22.17;11.45;;;0.90;84.00;;;;;;5041874;28;20819;-62
2024/01/28 00:59:17;;;;;;;24.42;11.25;;;0.90;83.90;;;;;;5044930;28;20041;-62
2024/01/28 01:01:43;;;;;;;18.20;9.95;;;0.90;83.80;;;;;;5046305;28;20033;-61
2024/01/28 01:04:08;;;;;;;18.92;9.73;;;0.90;83.90;;;;;;5048554;28;20033;-60
2024/01/28 01:06:34;;;;;;;16.35;10.18;;;0.90;84.00;;;;;;5048030;28;20059;-61
2024/01/28 01:08:59;;;;;;;18.90;10.30;;;0.80;83.90;;;;;;5048145;28;20033;-62
2024/01/28 01:11:25;;;;;;;16.20;9.82;;;0.80;83.90;;;;;;5045812;28;20563;-61
2024/01/28 01:13:52;;;;;;;17.92;10.52;;;0.80;83.90;;;;;;5046642;28;20079;-62
2024/01/28 01:16:17;;;;;;;19.73;10.25;;;0.70;83.90;;;;;;5053529;28;20480;-61
2024/01/28 01:18:43;;;;;;;21.48;10.95;;;0.70;84.00;;;;;;5046332;28;20075;-61
2024/01/28 01:21:09;;;;;;;18.80;10.55;;;0.70;84.00;;;;;;5047718;28;20044;-62
2024/01/28 01:23:34;;;;;;;17.50;10.57;;;0.70;84.10;;;;;;5048998;28;20241;-62
2024/01/28 01:26:00;;;;;;;16.73;10.20;;;0.70;84.00;;;;;;5041541;28;20116;-60
2024/01/28 01:28:31;;;;;;;17.75;10.00;;;0.60;84.00;;;;;;5046115;28;20033;-61
2024/01/28 01:30:58;;;;;;;18.90;10.23;;;0.60;84.00;;;;;;5041978;28;20396;-61
2024/01/28 01:33:23;;;;;;;24.05;10.73;;;0.60;84.20;;;;;;5043954;28;20103;-61
2024/01/28 01:35:49;;;;;;;19.13;10.65;;;0.60;84.40;;;;;;5044219;28;20506;-60
2024/01/28 01:38:14;;;;;;;18.23;9.93;;;0.60;84.40;;;;;;5043975;28;20018;-61
2024/01/28 01:40:40;;;;;;;25.00;12.20;;;0.50;84.60;;;;;;5049347;28;20160;-61
2024/01/28 01:43:09;;;;;;;21.75;11.10;;;0.50;84.70;;;;;;5045563;28;20040;-60
2024/01/28 01:45:37;;;;;;;24.35;11.55;;;0.50;85.10;;;;;;5042679;28;20041;-61
2024/01/28 01:48:11;;;;;;;24.80;11.98;;;0.50;85.20;;;;;;5047878;28;20384;-61
2024/01/28 01:50:40;;;;;;;22.03;11.53;;;0.50;85.40;;;;;;5040301;28;20112;-60
2024/01/28 01:53:08;;;;;;;24.77;11.32;;;0.50;85.40;;;;;;5043558;28;20032;-59
2024/01/28 01:55:35;;;;;;;19.55;10.52;;;0.50;85.20;;;;;;5046715;28;20439;-63
2024/01/28 01:58:01;;;;;;;19.40;10.82;;;0.50;84.90;;;;;;5043018;28;20071;-61
2024/01/28 02:00:27;;;;;;;18.00;10.38;;;0.50;84.80;;;;;;5048583;28;20041;-61
2024/01/28 02:02:53;;;;;;;17.48;9.25;;;0.50;84.80;;;;;;5048956;28;20094;-61
2024/01/28 02:05:19;;;;;;;16.40;9.25;;;0.50;84.90;;;;;;5045778;28;20033;-62
2024/01/28 02:07:44;;;;;;;21.25;10.60;;;0.50;85.10;;;;;;5046575;28;20525;-61
2024/01/28 02:10:10;;;;;;;19.25;10.23;;;0.50;85.00;;;;;;5043926;28;20347;-62
2024/01/28 02:12:36;;;;;;;21.02;10.43;;;0.50;84.70;;;;;;5045708;28;20035;-62
2024/01/28 02:15:04;;;;;;;17.55;9.85;;;0.50;84.60;;;;;;5045329;28;20029;-64
2024/01/28 02:17:30;;;;;;;18.63;9.93;;;0.50;84.60;;;;;;5045072;28;20037;-59
2024/01/28 02:19:55;;;;;;;20.25;10.18;;;0.50;84.60;;;;;;5042637;28;20052;-63
2024/01/28 02:22:21;;;;;;;18.55;10.30;;;0.50;84.40;;;;;;5042643;28;20094;-59
2024/01/28 02:24:46;;;;;;;18.42;10.45;;;0.50;84.50;;;;;;5045317;28;20056;-62
2024/01/28 02:27:12;;;;;;;18.13;10.30;;;0.40;84.50;;;;;;5043007;28;20500;-60
2024/01/28 02:29:37;;;;;;;19.27;9.93;;;0.40;84.60;;;;;;5045511;28;20108;-62
2024/01/28 02:32:03;;;;;;;19.20;10.68;;;0.40;84.60;;;;;;5042649;28;20040;-61
2024/01/28 02:34:29;;;;;;;19.48;10.45;;;0.40;84.60;;;;;;5046498;28;20063;-63
2024/01/28 02:36:55;;;;;;;17.70;10.30;;;0.40;84.60;;;;;;5047091;28;20577;-62
2024/01/28 02:39:20;;;;;;;19.42;10.15;;;0.40;84.60;;;;;;5041904;28;20445;-62
2024/01/28 02:41:46;;;;;;;19.98;10.65;;;0.30;84.50;;;;;;5043074;28;20043;-61
2024/01/28 02:44:11;;;;;;;19.23;10.35;;;0.30;84.60;;;;;;5043182;28;20041;-61
2024/01/28 02:46:37;;;;;;;20.17;10.88;;;0.30;84.60;;;;;;5046087;28;20048;-60
2024/01/28 02:49:02;;;;;;;16.77;10.15;;;0.30;84.60;;;;;;5044946;28;20459;-62
2024/01/28 02:51:28;;;;;;;20.15;11.02;;;0.30;84.60;;;;;;5043450;28;20037;-62
2024/01/28 02:53:53;;;;;;;22.08;11.63;;;0.20;84.60;;;;;;5041831;28;20030;-62
2024/01/28 02:56:19;;;;;;;20.35;10.60;;;0.20;84.70;;;;;;5044851;28;20036;-62
2024/01/28 02:58:45;;;;;;;22.60;10.63;;;0.20;84.70;;;;;;5045863;28;20068;-63
2024/01/28 03:01:10;;;;;;;20.23;11.05;;;0.20;85.10;;;;;;5042669;28;20045;-61
2024/01/28 03:03:36;;;;;;;18.90;10.00;;;0.10;85.10;;;;;;5048821;28;20025;-60
2024/01/28 03:06:03;;;;;;;18.38;10.18;;;0.10;85.30;;;;;;5040198;28;20087;-63
2024/01/28 03:08:29;;;;;;;16.90;9.63;;;0.10;85.40;;;;;;5045870;28;20033;-61
2024/01/28 03:10:54;;;;;;;19.50;10.60;;;0.10;85.40;;;;;;5046036;28;20389;-60
2024/01/28 03:13:20;;;;;;;21.83;10.40;;;0.10;85.40;;;;;;5044185;28;20347;-62
2024/01/28 03:15:46;;;;;;;20.25;10.73;;;0.10;85.30;;;;;;5041087;28;20037;-63
2024/01/28 03:18:12;;;;;;;18.70;9.98;;;0.10;85.20;;;;;;5040197;28;20029;-63
2024/01/28 03:20:37;;;;;;;15.98;9.25;;;0.10;85.20;;;;;;5046352;28;20420;-64
2024/01/28 03:23:03;;;;;;;15.63;9.13;;;0.00;85.20;;;;;;5044680;28;20041;-63
2024/01/28 03:25:28;;;;;;;20.05;10.18;;;0.10;85.40;;;;;;5045822;28;20037;-64
2024/01/28 03:27:54;;;;;;;18.85;10.15;;;0.00;85.30;;;;;;5046271;28;20060;-63
2024/01/28 03:30:19;;;;;;;17.48;10.05;;;0.10;85.30;;;;;;5040495;28;20063;-62
2024/01/28 03:32:45;;;;;;;16.92;10.02;;;0.10;85.10;;;;;;5045115;28;20036;-64
2024/01/28 03:35:11;;;;;;;18.95;10.52;;;0.10;85.00;;;;;;5042434;28;20099;-62
2024/01/28 03:37:37;;;;;;;21.13;10.52;;;0.00;84.80;;;;;;5045361;28;20036;-62
2024/01/28 03:40:02;;;;;;;16.63;10.02;;;0.00;84.70;;;;;;5048831;28;20033;-61
2024/01/28 03:42:29;;;;;;;18.00;11.18;;;0.00;84.70;;;;;;5042789;28;20064;-63
2024/01/28 03:44:54;;;;;;;22.48;10.57;;;0.00;84.70;;;;;;5044532;28;20041;-61
2024/01/28 03:47:20;;;;;;;18.65;10.60;;;-0.10;84.80;;;;;;5044511;28;20052;-61
2024/01/28 03:49:46;;;;;;;19.77;10.75;;;-0.10;84.90;;;;;;5042316;28;20451;-62
2024/01/28 03:52:11;;;;;;;19.52;10.13;;;-0.10;84.90;;;;;;5040070;28;20147;-63
2024/01/28 03:54:37;;;;;;;20.40;10.60;;;-0.20;85.00;;;;;;5047133;28;20040;-63
2024/01/28 03:57:03;;;;;;;19.60;10.57;;;-0.20;85.00;;;;;;5047081;28;20029;-63
2024/01/28 03:59:29;;;;;;;21.35;10.85;;;-0.20;85.10;;;;;;5045882;28;20040;-62
2024/01/28 04:01:54;;;;;;;21.98;10.95;;;-0.20;85.20;;;;;;5046146;28;20033;-62
2024/01/28 04:04:20;;;;;;;16.27;9.65;;;-0.20;85.20;;;;;;5044637;28;20034;-61
2024/01/28 04:06:46;;;;;;;18.50;9.55;;;-0.20;85.20;;;;;;5047137;28;20021;-63
2024/01/28 04:09:13;;;;;;;17.80;9.82;;;-0.20;85.30;;;;;;5051047;28;20412;-63
2024/01/28 04:11:39;;;;;;;22.55;10.10;;;-0.20;85.30;;;;;;5045358;28;20064;-63
2024/01/28 04:14:04;;;;;;;20.35;10.10;;;-0.20;85.30;;;;;;5046427;28;20128;-63
2024/01/28 04:16:32;;;;;;;18.67;10.48;;;-0.20;85.10;;;;;;5044288;28;20554;-64
2024/01/28 04:18:58;;;;;;;23.02;10.73;;;-0.20;85.10;;;;;;5044951;28;20427;-63
2024/01/28 04:21:24;;;;;;;19.38;10.48;;;-0.30;85.00;;;;;;5047162;28;20025;-62
2024/01/28 04:23:51;;;;;;;19.92;10.48;;;-0.30;85.00;;;;;;5046689;28;20231;-63
2024/01/28 04:26:17;;;;;;;19.90;9.95;;;-0.30;85.10;;;;;;5043862;28;20382;-61
2024/01/28 04:28:43;;;;;;;18.20;9.57;;;-0.30;85.10;;;;;;5048571;28;20111;-61
2024/01/28 04:31:09;;;;;;;20.90;10.15;;;-0.30;85.30;;;;;;5044144;28;20446;-61
2024/01/28 04:33:35;;;;;;;20.67;10.60;;;-0.30;85.30;;;;;;5045371;28;20029;-61
2024/01/28 04:36:00;;;;;;;18.25;10.52;;;-0.30;85.40;;;;;;5048259;28;20405;-62
2024/01/28 04:38:26;;;;;;;21.08;10.02;;;-0.20;85.40;;;;;;5047664;28;20037;-62
2024/01/28 04:40:51;;;;;;;20.20;10.60;;;-0.20;85.40;;;;;;5045223;28;20121;-63
2024/01/28 04:43:17;;;;;;;18.42;10.02;;;-0.20;85.30;;;;;;5046430;28;20021;-61
2024/01/28 04:45:43;;;;;;;19.00;10.30;;;-0.20;85.00;;;;;;5049621;28;20056;-62
2024/01/28 04:48:08;;;;;;;17.73;10.15;;;-0.10;84.90;;;;;;5049767;28;20091;-62
2024/01/28 04:50:34;;;;;;;17.00;9.43;;;-0.10;84.90;;;;;;5049715;28;20033;-62
2024/01/28 04:52:59;;;;;;;16.05;9.48;;;-0.10;84.70;;;;;;5048249;28;20112;-60
2024/01/28 04:55:25;;;;;;;20.63;10.73;;;-0.10;84.70;;;;;;5043070;28;20026;-60
2024/01/28 04:57:50;;;;;;;16.83;9.98;;;-0.10;84.40;;;;;;5045058;28;20025;-63
2024/01/28 05:00:17;;;;;;;20.10;10.63;;;-0.10;84.20;;;;;;5041283;28;20134;-62
2024/01/28 05:02:42;;;;;;;19.80;9.95;;;-0.20;84.30;;;;;;5050699;28;20044;-62
2024/01/28 05:05:08;;;;;;;19.23;10.18;;;-0.20;83.80;;;;;;5048584;28;20033;-62
2024/01/28 05:07:34;;;;;;;16.08;9.52;;;-0.20;83.80;;;;;;5049142;28;20029;-63
2024/01/28 05:10:00;;;;;;;20.85;10.35;;;-0.30;83.70;;;;;;5048285;28;20027;-62
2024/01/28 05:12:25;;;;;;;17.35;9.93;;;-0.30;83.80;;;;;;5042262;28;20029;-62
2024/01/28 05:14:51;;;;;;;17.20;9.90;;;-0.40;83.90;;;;;;5048285;28;20044;-62
2024/01/28 05:17:17;;;;;;;19.88;9.63;;;-0.40;84.00;;;;;;5044206;28;20397;-63
2024/01/28 05:19:42;;;;;;;20.17;10.43;;;-0.40;84.30;;;;;;5049495;28;20045;-61
2024/01/28 05:22:08;;;;;;;20.55;9.85;;;-0.40;84.50;;;;;;5042807;28;20509;-62
2024/01/28 05:24:34;;;;;;;19.77;10.45;;;-0.40;84.60;;;;;;5047931;28;20029;-63
2024/01/28 05:27:00;;;;;;;21.80;10.15;;;-0.40;84.60;;;;;;5046368;28;20060;-62
2024/01/28 05:29:25;;;;;;;18.65;10.55;;;-0.40;84.60;;;;;;5043528;28;20520;-63
2024/01/28 05:31:52;;;;;;;19.98;11.10;;;-0.40;84.70;;;;;;5051552;28;20037;-63
2024/01/28 05:34:18;;;;;;;18.02;10.43;;;-0.40;84.70;;;;;;5042781;28;20571;-63
2024/01/28 05:36:50;;;;;;;17.50;9.80;;;-0.40;84.60;;;;;;5049382;28;20069;-62
2024/01/28 05:39:16;;;;;;;18.23;9.50;;;-0.40;84.40;;;;;;5045097;28;20052;-62
2024/01/28 05:41:42;;;;;;;16.40;9.82;;;-0.30;84.40;;;;;;5044091;28;20057;-62
2024/01/28 05:44:08;;;;;;;18.33;9.98;;;-0.30;84.40;;;;;;5043563;28;20064;-61
2024/01/28 05:46:33;;;;;;;22.60;10.77;;;-0.30;84.20;;;;;;5046359;28;20386;-62
2024/01/28 05:48:59;;;;;;;19.52;9.80;;;-0.30;84.00;;;;;;5044446;28;20389;-62
2024/01/28 05:51:26;;;;;;;19.92;10.77;;;-0.30;83.80;;;;;;5043952;28;20037;-63
2024/01/28 05:53:55;;;;;;;19.58;10.38;;;-0.40;83.70;;;;;;5043014;28;20063;-62
2024/01/28 05:56:21;;;;;;;17.83;10.30;;;-0.40;83.70;;;;;;5046313;28;20029;-62
2024/01/28 05:58:48;;;;;;;19.05;10.43;;;-0.40;83.50;;;;;;5045571;28;20147;-63
2024/01/28 06:01:14;;;;;;;18.33;10.00;;;-0.40;83.60;;;;;;5043497;28;20042;-63
2024/01/28 06:03:41;;;;;;;16.30;9.73;;;-0.50;83.50;;;;;;5046934;28;20108;-64
2024/01/28 06:06:07;;;;;;;17.95;10.55;;;-0.50;83.60;;;;;;5043264;28;20033;-63
2024/01/28 06:08:33;;;;;;;19.33;10.55;;;-0.60;83.60;;;;;;5044561;28;20036;-63
2024/01/28 06:10:58;;;;;;;21.00;10.68;;;-0.60;83.50;;;;;;5047280;28;20030;-63
2024/01/28 06:13:24;;;;;;;20.45;10.18;;;-0.60;84.40;;;;;;5043532;28;20071;-63
2024/01/28 06:15:53;;;;;;;17.83;10.63;;;-0.60;83.70;;;;;;5044799;28;20033;-63
2024/01/28 06:18:19;;;;;;;24.17;10.52;;;-0.70;84.60;;;;;;5041940;28;20407;-63
2024/01/28 06:20:46;;;;;;;20.80;10.52;;;-0.70;83.80;;;;;;5048649;28;20440;-63
2024/01/28 06:23:12;;;;;;;18.67;10.85;;;-0.70;83.80;;;;;;5038422;28;20072;-63
2024/01/28 06:25:37;;;;;;;19.25;11.05;;;-0.80;83.90;;;;;;5044044;28;20496;-63
2024/01/28 06:28:04;;;;;;;20.02;10.75;;;-0.80;84.00;;;;;;5042008;28;20040;-61
2024/01/28 06:30:32;;;;;;;22.30;10.45;;;-0.80;84.20;;;;;;5046253;28;20025;-63
2024/01/28 06:32:58;;;;;;;20.33;10.23;;;-0.80;84.40;;;;;;5020673;28;20509;-63
2024/01/28 06:35:23;;;;;;;18.35;9.88;;;-0.80;84.70;;;;;;5041444;28;20036;-62
2024/01/28 06:37:49;;;;;;;17.48;10.20;;;-0.80;84.90;;;;;;5035811;28;20038;-63
2024/01/28 06:40:15;;;;;;;22.58;11.27;;;-0.80;85.10;;;;;;5039442;28;20032;-62
2024/01/28 06:42:41;;;;;;;23.85;13.57;;;-0.70;85.10;;;;;;5042385;28;21303;-63
2024/01/28 06:45:10;;;;;;;21.77;11.57;;;-0.70;85.10;;;;;;5037487;28;20402;-62
2024/01/28 06:47:35;;;;;;;22.60;11.52;;;-0.70;84.90;;;;;;5038684;28;20205;-63
2024/01/28 06:50:01;;;;;;;22.98;12.73;;;-0.70;85.00;;;;;;5038168;28;20083;-64
2024/01/28 06:52:27;;;;;;;20.88;11.43;;;-0.70;85.30;;;;;;5036287;28;20033;-62
2024/01/28 06:54:53;;;;;;;24.95;12.15;;;-0.70;85.40;;;;;;5036533;28;20052;-62
2024/01/28 06:57:19;;;;;;;21.08;11.27;;;-0.70;85.60;;;;;;5040192;28;20025;-63
2024/01/28 06:59:45;;;;;;;22.17;11.45;;;-0.70;85.90;;;;;;5042904;28;20037;-62
2024/01/28 07:02:12;;;;;;;20.95;12.18;;;-0.60;86.20;;;;;;5040634;28;20033;-61
2024/01/28 07:04:38;;;;;;;20.70;11.75;;;-0.60;86.30;;;;;;5044805;28;20037;-62
2024/01/28 07:07:04;;;;;;;29.67;13.02;;;-0.50;86.50;;;;;;5043777;28;20029;-61
2024/01/28 07:09:30;;;;;;;24.63;13.10;;;-0.50;86.50;;;;;;5044789;28;20037;-61
2024/01/28 07:11:56;;;;;;;30.63;14.13;;;-0.50;86.60;;;;;;5040695;28;20264;-63
2024/01/28 07:14:22;;;;;;;36.00;16.13;;;-0.40;87.00;;;;;;5041114;28;20033;-62
2024/01/28 07:16:49;;;;;;;33.47;15.25;;;-0.40;87.30;;;;;;5047900;28;20051;-62
2024/01/28 07:19:15;;;;;;;31.42;14.80;;;-0.30;87.70;;;;;;5042865;28;20501;-62
2024/01/28 07:21:40;;;;;;;28.67;13.45;;;-0.30;87.90;;;;;;5043779;28;20044;-62
2024/01/28 07:24:06;;;;;;;30.85;13.35;;;-0.20;88.20;;;;;;5043679;28;20029;-62
2024/01/28 07:26:32;;;;;;;44.47;14.10;;;-0.20;88.20;;;;;;5043358;28;20021;-62
2024/01/28 07:28:57;;;;;;;36.90;13.43;;;-0.10;88.30;;;;;;5041680;28;20038;-62
2024/01/28 07:31:23;;;;;;;60.92;14.43;;;0.00;88.50;;;;;;5039621;28;20049;-62
2024/01/28 07:33:49;;;;;;;28.23;13.05;;;0.00;88.60;;;;;;5048440;28;20045;-60
2024/01/28 07:36:16;;;;;;;108.90;16.20;;;0.10;88.70;;;;;;5044348;28;20034;-62
2024/01/28 07:38:45;;;;;;;46.03;13.88;;;0.10;88.70;;;;;;5048048;28;20033;-62
2024/01/28 07:41:16;;;;;;;51.17;14.02;;;0.20;88.90;;;;;;5040013;28;20112;-60
2024/01/28 07:43:42;;;;;;;48.55;13.95;;;0.20;88.90;;;;;;5049960;28;20033;-63
2024/01/28 07:46:09;;;;;;;164.32;17.08;;;0.30;88.90;;;;;;5044929;28;20399;-60
2024/01/28 07:48:34;;;;;;;96.90;13.82;;;0.30;89.90;;;;;;5049663;28;20115;-61
2024/01/28 07:51:00;;;;;;;185.40;18.73;;;0.40;89.10;;;;;;5049775;28;20107;-60
2024/01/28 07:53:26;;;;;;;41.25;13.57;;;0.40;89.00;;;;;;5049136;28;20049;-62
2024/01/28 07:55:53;;;;;;;34.65;12.18;;;0.40;89.10;;;;;;5053475;28;20078;-61
2024/01/28 07:58:18;;;;;;;66.53;15.10;;;0.40;90.00;;;;;;5044576;28;20353;-61
2024/01/28 08:00:44;;;;;;;34.67;13.40;;;0.50;89.30;;;;;;5049357;28;20029;-62
2024/01/28 08:03:09;;;;;;;52.47;12.27;;;0.50;89.40;;;;;;5043940;28;20120;-60
2024/01/28 08:05:35;;;;;;;45.42;12.80;;;0.60;89.50;;;;;;5047575;28;20041;-62
2024/01/28 08:08:01;;;;;;;55.47;13.60;;;0.60;89.50;;;;;;5046804;28;20549;-62
2024/01/28 08:10:26;;;;;;;128.48;15.68;;;0.60;89.60;;;;;;5045017;28;20540;-61
2024/01/28 08:12:52;;;;;;;47.63;13.38;;;0.70;89.70;;;;;;5047823;28;20455;-63
2024/01/28 08:15:20;;;;;;;30.40;12.15;;;0.70;89.60;;;;;;5049511;28;20064;-61
2024/01/28 08:17:45;;;;;;;53.05;12.52;;;0.70;89.40;;;;;;5042293;28;20048;-61
2024/01/28 08:20:11;;;;;;;42.95;12.68;;;0.70;89.50;;;;;;5046720;28;20033;-62
2024/01/28 08:22:38;;;;;;;97.00;13.57;;;0.80;89.60;;;;;;5045800;28;20404;-62
2024/01/28 08:25:04;;;;;;;78.07;13.18;;;0.90;89.70;;;;;;5046037;28;20032;-61
2024/01/28 08:27:30;;;;;;;52.42;13.20;;;0.90;89.60;;;;;;5051729;28;20056;-62
2024/01/28 08:29:56;;;;;;;133.80;16.08;;;0.90;89.40;;;;;;5049544;28;20029;-61
2024/01/28 08:32:22;;;;;;;42.58;13.20;;;0.90;89.50;;;;;;5046877;28;20109;-62
2024/01/28 08:34:49;;;;;;;134.10;14.73;;;0.90;89.10;;;;;;5045685;28;20067;-60
2024/01/28 08:37:15;;;;;;;45.63;12.80;;;0.90;89.10;;;;;;5043172;28;20087;-60
2024/01/28 08:39:41;;;;;;;95.65;12.75;;;0.90;89.20;;;;;;5048781;28;20033;-62
2024/01/28 08:42:06;;;;;;;84.93;13.55;;;0.90;89.40;;;;;;5046505;28;20044;-61
2024/01/28 08:44:32;;;;;;;29.02;12.50;;;1.00;89.40;;;;;;5044048;28;20033;-61
2024/01/28 08:46:58;;;;;;;46.17;13.63;;;1.00;89.50;;;;;;5050339;28;20492;-62
2024/01/28 08:49:23;;;;;;;37.45;14.18;;;1.00;89.50;;;;;;5045579;28;20033;-62
2024/01/28 08:51:49;;;;;;;125.43;16.08;;;1.10;89.60;;;;;;5047350;28;20390;-62
2024/01/28 08:54:14;;;;;;;181.57;18.83;;;1.10;89.70;;;;;;5044478;28;20076;-62
2024/01/28 08:56:40;;;;;;;133.15;15.60;;;1.10;89.50;;;;;;5047815;28;20039;-61
2024/01/28 08:59:06;;;;;;;105.93;17.20;;;1.10;89.30;;;;;;5047236;28;20033;-63
2024/01/28 09:01:32;;;;;;;154.65;16.33;;;1.10;89.30;;;;;;5045426;28;20504;-62
2024/01/28 09:03:57;;;;;;;39.33;12.90;;;1.10;89.30;;;;;;5041896;28;20108;-62
2024/01/28 09:06:23;;;;;;;44.58;12.82;;;1.10;89.10;;;;;;5045485;28;20397;-63
2024/01/28 09:08:49;;;;;;;90.43;13.80;;;1.10;89.20;;;;;;5049839;28;20068;-62
2024/01/28 09:11:14;;;;;;;39.67;11.70;;;1.10;89.20;;;;;;5042475;28;20063;-63
2024/01/28 09:13:41;;;;;;;66.28;13.30;;;1.10;89.10;;;;;;5045668;28;20044;-64
2024/01/28 09:16:07;;;;;;;120.53;13.52;;;1.10;89.30;;;;;;5040346;28;20440;-64
2024/01/28 09:18:33;;;;;;;115.20;14.43;;;1.20;89.50;;;;;;5046488;28;20033;-63
2024/01/28 09:20:59;;;;;;;47.10;12.48;;;1.20;89.50;;;;;;5045934;28;20530;-64
2024/01/28 09:23:25;;;;;;;52.97;12.25;;;1.20;89.60;;;;;;5045773;28;20571;-63
2024/01/28 09:25:50;;;;;;;208.75;16.50;;;1.30;89.60;;;;;;5044060;28;20082;-61
2024/01/28 09:28:16;;;;;;;74.80;12.95;;;1.30;89.50;;;;;;5050056;28;20024;-63
2024/01/28 09:30:42;;;;;;;26.13;11.90;;;1.30;89.10;;;;;;5042753;28;20029;-63
2024/01/28 09:33:10;;;;;;;21.52;12.38;;;1.30;89.00;;;;;;5044027;28;20029;-62
2024/01/28 09:35:39;;;;;;;79.20;14.65;;;1.30;89.30;;;;;;5048130;28;20035;-62
2024/01/28 09:38:07;;;;;;;151.55;16.98;;;1.40;89.50;;;;;;5043441;28;20419;-61
2024/01/28 09:40:34;;;;;;;91.13;14.10;;;1.30;89.40;;;;;;5047776;28;20062;-61
2024/01/28 09:43:09;;;;;;;52.63;14.90;;;1.30;89.30;;;;;;5047601;28;20047;-61
2024/01/28 09:45:35;;;;;;;99.90;15.48;;;1.40;89.40;;;;;;5046200;28;20029;-59
2024/01/28 09:48:01;;;;;;;80.90;14.05;;;1.40;89.40;;;;;;5050367;28;20037;-63
2024/01/28 09:50:27;;;;;;;119.43;15.45;;;1.40;89.40;;;;;;5046623;28;20035;-61
2024/01/28 09:52:53;;;;;;;95.40;14.15;;;1.40;89.50;;;;;;5047225;28;20033;-61
2024/01/28 09:55:18;;;;;;;110.07;16.95;;;1.40;89.40;;;;;;5042762;28;20083;-63
2024/01/28 09:57:45;;;;;;;142.52;16.02;;;1.40;89.30;;;;;;5043543;28;20044;-62
2024/01/28 10:00:12;;;;;;;125.03;18.30;;;1.40;89.30;;;;;;5049131;28;20028;-61
2024/01/28 10:02:39;;;;;;;125.40;15.73;;;1.40;89.30;;;;;;5044730;28;20123;-62
2024/01/28 10:05:10;;;;;;;26.30;14.63;;;1.40;89.30;;;;;;5043219;28;20029;-61
2024/01/28 10:07:50;;;;;;;138.38;16.95;;;1.40;89.40;;;;;;5048104;28;20029;-62
2024/01/28 10:10:17;;;;;;;143.07;16.48;;;1.40;89.90;;;;;;5041537;28;20036;-62
2024/01/28 10:12:49;;;;;;;98.88;18.25;;;1.40;89.60;;;;;;5043593;28;20128;-61
2024/01/28 10:15:17;;;;;;;103.85;15.95;;;1.50;89.40;;;;;;5043747;28;20364;-63
2024/01/28 10:17:47;;;;;;;107.00;16.13;;;1.40;89.30;;;;;;5045053;28;20056;-61
2024/01/28 10:20:17;;;;;;;122.85;14.60;;;1.40;89.20;;;;;;5044124;28;20052;-61
2024/01/28 10:22:43;;;;;;;134.75;16.10;;;1.40;89.30;;;;;;5043315;28;20445;-62
2024/01/28 10:25:15;;;;;;;53.40;14.55;;;1.40;89.20;;;;;;5041103;28;20029;-61
2024/01/28 10:27:42;;;;;;;36.63;13.27;;;1.40;89.40;;;;;;5035834;28;20037;-61
2024/01/28 10:30:10;;;;;;;57.70;15.52;;;1.40;89.60;;;;;;5038371;28;20034;-63
2024/01/28 10:32:35;;;;;;;95.60;23.60;;;1.40;90.00;;;;;;5046522;28;20099;-60
2024/01/28 10:35:01;;;;;;;154.35;20.60;;;1.50;90.10;;;;;;5047635;28;20040;-60
2024/01/28 10:37:32;;;;;;;78.50;15.90;;;1.50;90.20;;;;;;5046954;28;20497;-61
2024/01/28 10:40:05;;;;;;;81.15;15.18;;;1.50;90.10;;;;;;5043668;28;20060;-61
2024/01/28 10:42:37;;;;;;;77.43;15.13;;;1.60;90.10;;;;;;5044578;28;20163;-60
2024/01/28 10:45:05;;;;;;;58.20;14.35;;;1.60;90.00;;;;;;5041921;28;20531;-61
2024/01/28 10:47:33;;;;;;;38.65;13.50;;;1.60;89.70;;;;;;5050693;28;20036;-60
2024/01/28 10:50:02;;;;;;;53.58;14.93;;;1.60;89.80;;;;;;5046836;28;20399;-61
2024/01/28 10:52:29;;;;;;;33.42;14.55;;;1.60;90.00;;;;;;5048948;28;20029;-61
2024/01/28 10:54:55;;;;;;;80.55;13.95;;;1.60;90.10;;;;;;5046398;28;20040;-60
2024/01/28 10:57:21;;;;;;;87.63;14.35;;;1.70;90.20;;;;;;5040478;28;20039;-61
2024/01/28 10:59:48;;;;;;;38.97;12.85;;;1.70;90.10;;;;;;5046514;28;20444;-62
2024/01/28 11:02:14;;;;;;;18.35;12.20;;;1.70;90.00;;;;;;5039370;28;20052;-62
2024/01/28 11:04:40;;;;;;;21.67;12.40;;;1.70;89.70;;;;;;5044619;28;20464;-63
2024/01/28 11:07:06;;;;;;;27.63;12.52;;;1.80;90.00;;;;;;5048007;28;20112;-62
2024/01/28 11:09:32;;;;;;;69.30;13.85;;;1.80;90.20;;;;;;5049842;28;20120;-60
2024/01/28 11:11:58;;;;;;;36.38;13.23;;;1.90;90.20;;;;;;5047668;28;20516;-63
2024/01/28 11:14:27;;;;;;;44.28;14.05;;;1.90;90.20;;;;;;5043707;28;20121;-63
2024/01/28 11:16:53;;;;;;;55.97;13.93;;;2.00;90.20;;;;;;5047772;28;20037;-62
2024/01/28 11:19:18;;;;;;;73.68;15.48;;;2.00;90.20;;;;;;5042815;28;20527;-61
2024/01/28 11:21:52;;;;;;;59.72;14.60;;;2.10;90.10;;;;;;5042749;28;20037;-61
2024/01/28 11:24:18;;;;;;;30.45;13.15;;;2.10;90.00;;;;;;5052448;28;20025;-62
2024/01/28 11:26:46;;;;;;;80.28;14.43;;;2.10;89.80;;;;;;5044194;28;20037;-61
2024/01/28 11:29:12;;;;;;;26.60;12.38;;;2.10;89.80;;;;;;5045886;28;20025;-61
2024/01/28 11:31:39;;;;;;;22.58;13.43;;;2.10;89.60;;;;;;5045394;28;20110;-62
2024/01/28 11:34:17;;;;;;;24.40;12.75;;;2.10;89.80;;;;;;5043616;28;20041;-61
2024/01/28 11:36:44;;;;;;;29.67;13.05;;;2.20;90.00;;;;;;5048177;28;20090;-61
2024/01/28 11:39:12;;;;;;;56.85;14.48;;;2.20;90.00;;;;;;5044410;28;20402;-62
2024/01/28 11:41:39;;;;;;;52.05;15.00;;;2.20;90.00;;;;;;5040236;28;20033;-62
2024/01/28 11:44:09;;;;;;;32.75;12.57;;;2.30;89.80;;;;;;5047226;28;20033;-62
2024/01/28 11:46:36;;;;;;;40.13;12.90;;;2.30;89.60;;;;;;5041313;28;20025;-62
2024/01/28 11:49:02;;;;;;;23.25;12.40;;;2.30;89.60;;;;;;5048486;28;20037;-63
2024/01/28 11:51:33;;;;;;;18.33;11.90;;;2.30;89.70;;;;;;5044793;28;20044;-63
2024/01/28 11:54:05;;;;;;;21.88;12.73;;;2.40;90.00;;;;;;5042341;28;20045;-63
2024/01/28 11:56:32;;;;;;;23.65;12.02;;;2.40;90.00;;;;;;5046028;28;20067;-63
2024/01/28 11:58:58;;;;;;;45.00;18.63;;;2.50;89.80;;;;;;5046410;28;20028;-60
2024/01/28 12:01:24;;;;;;;42.83;19.52;;;2.50;89.80;;;;;;5044543;28;20404;-61
2024/01/28 12:03:54;;;;;;;33.80;16.95;;;2.60;89.60;;;;;;5051456;28;20029;-62
2024/01/28 12:06:24;;;;;;;31.17;17.38;;;2.60;89.70;;;;;;5043566;28;20489;-61
2024/01/28 12:08:51;;;;;;;114.40;17.52;;;2.60;89.80;;;;;;5046687;28;20128;-60
2024/01/28 12:11:21;;;;;;;57.58;15.63;;;2.60;89.70;;;;;;5042246;28;20037;-62
2024/01/28 12:13:48;;;;;;;27.90;13.98;;;2.60;89.00;;;;;;5043705;28;20119;-62
2024/01/28 12:16:19;;;;;;;27.10;14.25;;;2.60;88.90;;;;;;5048223;28;20033;-61
2024/01/28 12:18:44;;;;;;;70.88;16.10;;;2.60;89.20;;;;;;5045505;28;20210;-62
2024/01/28 12:21:20;;;;;;;42.70;14.23;;;2.60;89.40;;;;;;5044065;28;20044;-63
2024/01/28 12:23:52;;;;;;;77.70;16.08;;;2.60;89.30;;;;;;5046057;28;20439;-61
2024/01/28 12:26:18;;;;;;;39.78;14.82;;;2.60;89.30;;;;;;5040533;28;20033;-62
2024/01/28 12:28:46;;;;;;;65.93;16.00;;;2.60;89.30;;;;;;5042973;28;20146;-59